Time;durP1;ratioP1;P1;durP2;ratioP2;P2;SDS_P1;SDS_P2;PMS_P1;PMS_P2;Temp;Humidity;BMP_temperature;BMP_pressure;BME280_temperature;BME280_humidity;BME280_pressure;Samples;Min_cycle;Max_cycle;Signal;HPM_P1;HPM_P2
2021/10/26 00:02:11;;;;;;;11.30;3.40;;;;;;;7.93;57.63;100764.06;113761;1197;22472;-77
2021/10/26 00:04:40;;;;;;;10.80;4.10;;;;;;;7.92;57.60;100768.71;113758;1197;23106;-76
2021/10/26 00:07:08;;;;;;;15.10;3.70;;;;;;;7.91;57.74;100768.48;113756;1197;22484;-77
2021/10/26 00:09:37;;;;;;;11.10;3.10;;;;;;;7.90;57.80;100766.71;113734;1190;25117;-77
2021/10/26 00:12:06;;;;;;;11.10;2.50;;;;;;;7.89;58.02;100768.39;113701;1197;25063;-77
2021/10/26 00:14:35;;;;;;;10.20;1.90;;;;;;;7.87;57.92;100768.71;113884;1190;24264;-77
2021/10/26 00:17:03;;;;;;;14.20;2.90;;;;;;;7.86;58.16;100768.27;113714;1190;25023;-76
2021/10/26 00:19:31;;;;;;;11.00;2.20;;;;;;;7.83;58.15;100768.59;113782;1197;22440;-77
2021/10/26 00:22:00;;;;;;;9.10;2.10;;;;;;;7.82;58.40;100768.27;113746;1197;22445;-77
2021/10/26 00:24:28;;;;;;;13.50;2.90;;;;;;;7.80;58.43;100767.29;113744;1194;25013;-77
2021/10/26 00:26:56;;;;;;;10.60;2.20;;;;;;;7.78;58.59;100773.69;113719;1193;25490;-77
2021/10/26 00:29:25;;;;;;;11.00;2.50;;;;;;;7.78;58.67;100779.19;113793;1197;23328;-77
2021/10/26 00:31:53;;;;;;;14.10;2.80;;;;;;;7.78;58.83;100775.21;113765;1197;22864;-77
2021/10/26 00:34:21;;;;;;;11.00;2.40;;;;;;;7.78;58.86;100769.00;113816;1197;25043;-77
2021/10/26 00:36:49;;;;;;;8.70;2.20;;;;;;;7.78;58.94;100767.91;113883;1197;22426;-77
2021/10/26 00:39:17;;;;;;;10.90;2.80;;;;;;;7.75;59.00;100763.69;113842;1197;22481;-76
2021/10/26 00:41:46;;;;;;;16.30;2.80;;;;;;;7.73;59.19;100767.59;113758;1197;26334;-77
2021/10/26 00:44:15;;;;;;;10.90;2.30;;;;;;;7.72;59.22;100769.54;113861;1190;25257;-77
2021/10/26 00:46:43;;;;;;;9.90;2.40;;;;;;;7.71;59.39;100772.65;113709;1198;22415;-76
2021/10/26 00:49:11;;;;;;;15.60;2.60;;;;;;;7.70;59.45;100772.05;113762;1197;24376;-76
2021/10/26 00:51:41;;;;;;;12.30;2.60;;;;;;;7.69;59.45;100762.56;113814;1197;22407;-77
2021/10/26 00:54:09;;;;;;;10.50;2.90;;;;;;;7.67;59.51;100757.29;113919;1197;22618;-76
2021/10/26 00:56:38;;;;;;;9.40;2.40;;;;;;;7.65;59.59;100753.23;113775;1198;25013;-76
2021/10/26 00:59:05;;;;;;;13.20;3.00;;;;;;;7.63;59.77;100759.02;113702;1197;22438;-77
2021/10/26 01:01:33;;;;;;;12.90;3.20;;;;;;;7.62;59.82;100759.61;113731;1197;22721;-76
2021/10/26 01:04:01;;;;;;;11.10;2.40;;;;;;;7.61;59.94;100761.65;113742;1197;23855;-77
2021/10/26 01:06:30;;;;;;;17.50;3.70;;;;;;;7.59;59.99;100762.52;113730;1197;22464;-76
2021/10/26 01:08:58;;;;;;;12.90;3.70;;;;;;;7.56;60.02;100765.93;113694;1197;22483;-77
2021/10/26 01:11:26;;;;;;;11.60;3.80;;;;;;;7.54;60.15;100762.50;113739;1197;22432;-77
2021/10/26 01:13:55;;;;;;;19.40;3.50;;;;;;;7.51;60.27;100758.84;113727;1190;24040;-76
2021/10/26 01:16:25;;;;;;;18.00;3.50;;;;;;;7.51;60.40;100753.88;113714;1197;23004;-76
2021/10/26 01:18:52;;;;;;;13.80;3.70;;;;;;;7.50;60.48;100754.45;113669;1197;22435;-76
2021/10/26 01:21:21;;;;;;;13.60;3.70;;;;;;;7.49;60.52;100756.54;113638;1198;22416;-76
2021/10/26 01:23:49;;;;;;;13.00;2.60;;;;;;;7.48;60.56;100762.55;113638;1197;22422;-76
2021/10/26 01:26:17;;;;;;;11.00;3.00;;;;;;;7.46;60.61;100758.55;113698;1197;25217;-76
2021/10/26 01:28:45;;;;;;;14.10;3.50;;;;;;;7.45;60.72;100756.59;113695;1197;23769;-76
2021/10/26 01:31:13;;;;;;;11.30;3.30;;;;;;;7.45;60.83;100754.05;113674;1197;23127;-76
2021/10/26 01:33:41;;;;;;;16.40;5.00;;;;;;;7.44;60.88;100755.45;113706;1197;23001;-76
2021/10/26 01:36:09;;;;;;;19.00;4.60;;;;;;;7.42;60.88;100757.19;113739;1197;22475;-76
2021/10/26 01:38:37;;;;;;;12.90;3.20;;;;;;;7.40;61.02;100757.33;113654;1197;25126;-77
2021/10/26 01:41:06;;;;;;;15.50;4.20;;;;;;;7.39;61.05;100757.84;113696;1197;24997;-76
2021/10/26 01:43:34;;;;;;;15.40;4.50;;;;;;;7.38;61.08;100760.02;113665;1197;26644;-76
2021/10/26 01:46:02;;;;;;;13.10;3.80;;;;;;;7.35;61.05;100756.34;113543;1198;25274;-77
2021/10/26 01:48:30;;;;;;;15.40;4.00;;;;;;;7.32;61.16;100758.19;113664;1197;22495;-77
2021/10/26 01:51:00;;;;;;;17.90;4.30;;;;;;;7.29;61.20;100762.09;113687;1197;22428;-77
2021/10/26 01:53:28;;;;;;;12.00;3.90;;;;;;;7.25;61.29;100761.56;113720;1197;22424;-76
2021/10/26 01:55:57;;;;;;;22.50;5.50;;;;;;;7.22;61.34;100760.71;113670;1197;25058;-77
2021/10/26 01:58:25;;;;;;;14.50;3.50;;;;;;;7.19;61.37;100757.48;113718;1197;24129;-77
2021/10/26 02:00:53;;;;;;;15.90;3.90;;;;;;;7.17;61.46;100757.88;113731;1197;25112;-77
2021/10/26 02:03:21;;;;;;;17.30;3.80;;;;;;;7.16;61.42;100756.86;113699;1197;22675;-77
2021/10/26 02:05:49;;;;;;;17.30;4.20;;;;;;;7.13;61.48;100752.27;113678;1174;22533;-76
2021/10/26 02:08:23;;;;;;;14.70;4.90;;;;;;;7.12;61.50;100752.62;113765;1197;24064;-76
2021/10/26 02:10:51;;;;;;;13.30;3.70;;;;;;;7.11;61.57;100747.67;113694;1197;24109;-77
2021/10/26 02:13:19;;;;;;;16.50;3.60;;;;;;;7.09;61.56;100751.94;113670;1197;25486;-77
2021/10/26 02:15:47;;;;;;;12.20;3.40;;;;;;;7.07;61.59;100748.90;113748;1197;22965;-77
2021/10/26 02:18:15;;;;;;;19.20;4.50;;;;;;;7.05;61.69;100747.76;113725;1197;22430;-77
2021/10/26 02:20:43;;;;;;;17.00;3.90;;;;;;;7.03;61.65;100749.09;113741;1197;22839;-77
2021/10/26 02:23:11;;;;;;;22.90;4.70;;;;;;;7.01;61.71;100746.71;113739;1197;22426;-77
2021/10/26 02:25:39;;;;;;;18.60;4.10;;;;;;;6.97;61.80;100748.32;113723;1197;25414;-77
2021/10/26 02:28:07;;;;;;;12.70;3.70;;;;;;;6.94;61.71;100747.15;113690;1197;24088;-76
2021/10/26 02:30:36;;;;;;;18.40;4.50;;;;;;;6.92;61.86;100744.67;113841;1197;25337;-77
2021/10/26 02:33:05;;;;;;;13.00;3.50;;;;;;;6.89;61.89;100747.31;113806;1184;25060;-76
2021/10/26 02:35:33;;;;;;;15.70;4.00;;;;;;;6.86;62.02;100750.80;113722;1196;22467;-78
2021/10/26 02:38:01;;;;;;;13.40;3.80;;;;;;;6.83;62.05;100751.44;113700;1197;22477;-76
2021/10/26 02:40:30;;;;;;;15.20;4.60;;;;;;;6.81;62.04;100751.42;113726;1197;22475;-77
2021/10/26 02:42:58;;;;;;;23.60;4.70;;;;;;;6.78;62.10;100754.90;113669;1197;22443;-77
2021/10/26 02:45:28;;;;;;;15.80;3.70;;;;;;;6.75;62.11;100756.28;113708;1197;22453;-77
2021/10/26 02:47:57;;;;;;;13.70;4.00;;;;;;;6.72;62.12;100754.88;113787;1197;22443;-77
2021/10/26 02:50:27;;;;;;;14.90;3.90;;;;;;;6.68;62.31;100754.02;113922;1197;24997;-76
2021/10/26 02:52:55;;;;;;;16.40;4.20;;;;;;;6.64;62.35;100756.05;113689;1197;25145;-77
2021/10/26 02:55:24;;;;;;;16.60;3.70;;;;;;;6.58;62.47;100750.26;113705;1197;22450;-77
2021/10/26 02:57:52;;;;;;;17.30;3.80;;;;;;;6.53;62.67;100752.52;113712;1197;24269;-77
2021/10/26 03:00:19;;;;;;;14.50;4.20;;;;;;;6.49;62.73;100750.04;113619;1197;22488;-76
2021/10/26 03:02:48;;;;;;;14.30;3.60;;;;;;;6.46;62.79;100753.38;113698;1197;24099;-76
2021/10/26 03:05:16;;;;;;;14.70;4.20;;;;;;;6.43;62.92;100757.17;113678;1197;25098;-76
2021/10/26 03:07:46;;;;;;;13.50;4.00;;;;;;;6.40;62.87;100756.29;113689;1197;22454;-76
2021/10/26 03:10:15;;;;;;;13.60;3.40;;;;;;;6.38;63.05;100752.58;113612;1190;22549;-77
2021/10/26 03:12:44;;;;;;;14.90;3.80;;;;;;;6.36;63.00;100753.10;113772;1197;23107;-77
2021/10/26 03:15:13;;;;;;;13.20;3.60;;;;;;;6.34;63.07;100754.05;113761;1197;22471;-77
2021/10/26 03:17:41;;;;;;;17.20;4.60;;;;;;;6.31;63.09;100749.52;113872;1197;23004;-77
2021/10/26 03:20:11;;;;;;;13.60;3.90;;;;;;;6.29;63.14;100751.65;113718;1190;22413;-76
2021/10/26 03:22:39;;;;;;;13.70;4.00;;;;;;;6.26;63.20;100748.01;113663;1197;22416;-77
2021/10/26 03:25:09;;;;;;;13.30;3.70;;;;;;;6.23;63.19;100748.22;113787;1197;22424;-77
2021/10/26 03:27:37;;;;;;;13.60;3.90;;;;;;;6.20;63.30;100751.40;113864;1197;25114;-77
2021/10/26 03:30:07;;;;;;;13.30;3.60;;;;;;;6.17;63.41;100746.58;113750;1197;22536;-76
2021/10/26 03:32:41;;;;;;;18.30;4.80;;;;;;;6.13;63.46;100749.05;113891;1197;24127;-77
2021/10/26 03:35:09;;;;;;;15.10;4.00;;;;;;;6.09;63.43;100755.41;113978;1183;22434;-77
2021/10/26 03:37:38;;;;;;;13.30;4.70;;;;;;;6.04;63.52;100749.34;114062;1196;22539;-77
2021/10/26 03:40:08;;;;;;;16.50;4.50;;;;;;;6.00;63.68;100746.31;114024;1197;22998;-77
2021/10/26 03:42:36;;;;;;;17.90;4.50;;;;;;;5.98;63.68;100754.05;113709;1197;24160;-76
2021/10/26 03:45:06;;;;;;;15.50;5.10;;;;;;;5.95;63.80;100747.40;113653;1197;22441;-77
2021/10/26 03:47:39;;;;;;;20.00;5.70;;;;;;;5.92;63.88;100746.29;113759;1197;22435;-77
2021/10/26 03:50:08;;;;;;;14.10;4.20;;;;;;;5.90;64.06;100746.18;113753;1197;25125;-76
2021/10/26 03:52:37;;;;;;;15.80;5.30;;;;;;;5.88;64.22;100754.45;113841;1197;22430;-77
2021/10/26 03:55:06;;;;;;;17.30;5.20;;;;;;;5.87;64.32;100749.11;113634;1197;25133;-76
2021/10/26 03:57:34;;;;;;;18.20;5.60;;;;;;;5.86;64.53;100742.47;113817;1197;22434;-77
2021/10/26 04:00:04;;;;;;;19.60;6.70;;;;;;;5.86;64.57;100740.59;113699;1197;22433;-77
2021/10/26 04:02:33;;;;;;;22.20;7.20;;;;;;;5.85;64.65;100741.02;113826;1197;25072;-77
2021/10/26 04:05:03;;;;;;;20.00;6.80;;;;;;;5.84;64.88;100746.96;113748;1197;22562;-77
2021/10/26 04:07:34;;;;;;;21.70;6.90;;;;;;;5.83;65.01;100740.79;113714;1197;22453;-76
2021/10/26 04:10:05;;;;;;;22.60;7.90;;;;;;;5.82;65.18;100741.68;113885;1197;22732;-76
2021/10/26 04:12:33;;;;;;;21.10;7.80;;;;;;;5.82;65.22;100748.73;113753;1197;22457;-76
2021/10/26 04:15:01;;;;;;;22.20;8.70;;;;;;;5.82;65.25;100753.40;113759;1197;24313;-77
2021/10/26 04:17:29;;;;;;;20.60;7.60;;;;;;;5.82;65.42;100757.84;113694;1197;22428;-76
2021/10/26 04:19:59;;;;;;;22.20;9.50;;;;;;;5.82;65.40;100751.83;113698;1197;26290;-76
2021/10/26 04:22:27;;;;;;;20.90;7.90;;;;;;;5.82;65.68;100754.59;113720;1197;22765;-76
2021/10/26 04:24:55;;;;;;;21.40;7.80;;;;;;;5.81;65.70;100754.61;113616;1197;22537;-76
2021/10/26 04:27:23;;;;;;;19.10;7.60;;;;;;;5.80;65.74;100750.35;113695;1183;22449;-76
2021/10/26 04:29:51;;;;;;;19.80;7.60;;;;;;;5.79;65.83;100752.63;113774;1197;22991;-76
2021/10/26 04:32:19;;;;;;;20.30;7.60;;;;;;;5.76;65.83;100755.13;113777;1197;22500;-76
2021/10/26 04:34:48;;;;;;;20.40;7.30;;;;;;;5.71;65.96;100758.89;113743;1197;22446;-77
2021/10/26 04:37:16;;;;;;;14.80;5.40;;;;;;;5.58;65.75;100748.67;113728;1197;25108;-77
2021/10/26 04:39:46;;;;;;;16.70;5.70;;;;;;;5.46;65.80;100745.88;113762;1197;22446;-77
2021/10/26 04:42:14;;;;;;;14.20;4.00;;;;;;;5.38;65.86;100752.80;113915;1197;22424;-76
2021/10/26 04:44:42;;;;;;;19.40;5.10;;;;;;;5.36;65.91;100755.55;113803;1197;25274;-76
2021/10/26 04:47:10;;;;;;;16.90;5.10;;;;;;;5.34;65.94;100748.33;113748;1197;25248;-76
2021/10/26 04:49:38;;;;;;;15.30;5.00;;;;;;;5.33;65.99;100750.25;113729;1193;22553;-76
2021/10/26 04:52:06;;;;;;;19.50;4.90;;;;;;;5.31;65.90;100749.81;113757;1197;25048;-76
2021/10/26 04:54:33;;;;;;;18.60;5.60;;;;;;;5.31;65.82;100746.64;113715;1197;22553;-76
2021/10/26 04:57:01;;;;;;;23.60;6.40;;;;;;;5.32;65.86;100745.60;113778;1183;22449;-76
2021/10/26 04:59:29;;;;;;;23.30;9.40;;;;;;;5.31;65.92;100752.52;113819;1197;26297;-76
2021/10/26 05:01:57;;;;;;;23.60;7.90;;;;;;;5.29;65.97;100745.83;113812;1197;22651;-77
2021/10/26 05:04:26;;;;;;;19.60;6.70;;;;;;;5.25;66.09;100747.81;113802;1197;22415;-77
2021/10/26 05:06:54;;;;;;;25.20;7.50;;;;;;;5.22;66.14;100750.42;113731;1197;22518;-77
2021/10/26 05:09:23;;;;;;;23.70;7.20;;;;;;;5.20;66.30;100752.92;113696;1197;22934;-77
2021/10/26 05:11:51;;;;;;;27.70;7.60;;;;;;;5.18;66.33;100746.95;113942;1183;24106;-77
2021/10/26 05:14:19;;;;;;;27.40;9.10;;;;;;;5.17;66.33;100739.56;113951;1197;22526;-77
2021/10/26 05:16:47;;;;;;;26.90;10.10;;;;;;;5.14;66.39;100732.48;113924;1190;25020;-77
2021/10/26 05:19:17;;;;;;;26.30;8.80;;;;;;;5.12;66.45;100735.15;114191;1197;25108;-77
2021/10/26 05:21:45;;;;;;;26.40;9.50;;;;;;;5.08;66.46;100739.51;114268;1197;22538;-76
2021/10/26 05:24:14;;;;;;;23.90;8.80;;;;;;;5.04;66.51;100736.38;115547;1197;24177;-77
2021/10/26 05:26:43;;;;;;;32.80;10.00;;;;;;;4.96;66.57;100734.33;114870;1197;22514;-77
2021/10/26 05:29:12;;;;;;;27.50;10.60;;;;;;;4.91;66.83;100741.08;114481;1196;22538;-77
2021/10/26 05:31:41;;;;;;;29.40;10.50;;;;;;;4.84;66.84;100745.25;114341;1197;24078;-77
2021/10/26 05:34:09;;;;;;;30.60;11.90;;;;;;;4.80;66.92;100743.03;114291;1190;25063;-77
2021/10/26 05:36:38;;;;;;;37.10;14.70;;;;;;;4.74;66.98;100732.90;114392;1197;27298;-76
2021/10/26 05:39:09;;;;;;;30.30;11.70;;;;;;;4.67;67.00;100727.44;114297;1197;22425;-78
2021/10/26 05:41:39;;;;;;;33.10;10.70;;;;;;;4.62;67.05;100732.39;114499;1197;23672;-77
2021/10/26 05:44:08;;;;;;;27.30;10.90;;;;;;;4.54;67.17;100741.30;114598;1197;22414;-75
2021/10/26 05:46:36;;;;;;;25.80;9.60;;;;;;;4.50;67.23;100741.46;114626;1197;22424;-76
2021/10/26 05:49:04;;;;;;;29.60;10.20;;;;;;;4.48;67.16;100746.11;114673;1197;22437;-76
2021/10/26 05:51:32;;;;;;;25.00;9.10;;;;;;;4.45;67.34;100749.84;114833;1197;22470;-76
2021/10/26 05:54:00;;;;;;;29.20;9.90;;;;;;;4.47;67.33;100744.45;114895;1197;22421;-76
2021/10/26 05:56:29;;;;;;;36.00;10.60;;;;;;;4.51;67.48;100743.96;114846;1197;22454;-76
2021/10/26 05:58:57;;;;;;;26.40;10.00;;;;;;;4.55;67.55;100747.30;114762;1194;25112;-76
2021/10/26 06:01:25;;;;;;;31.30;11.00;;;;;;;4.58;67.65;100748.42;114669;1197;22419;-76
2021/10/26 06:03:53;;;;;;;31.20;11.60;;;;;;;4.58;67.84;100753.23;114316;1190;23553;-74
2021/10/26 06:06:21;;;;;;;32.80;11.90;;;;;;;4.54;68.07;100756.88;114292;1197;23511;-74
2021/10/26 06:08:52;;;;;;;35.30;11.70;;;;;;;4.50;68.11;100761.30;114276;1197;27439;-74
2021/10/26 06:11:23;;;;;;;28.10;11.30;;;;;;;4.49;68.13;100762.67;114356;1183;25342;-75
2021/10/26 06:14:00;;;;;;;29.40;10.50;;;;;;;4.48;68.21;100761.58;114674;1197;25045;-75
2021/10/26 06:16:30;;;;;;;28.20;11.90;;;;;;;4.47;68.28;100763.89;114723;1197;24037;-75
2021/10/26 06:18:58;;;;;;;32.70;11.90;;;;;;;4.46;68.42;100762.88;114331;1197;22512;-75
2021/10/26 06:21:28;;;;;;;29.20;11.50;;;;;;;4.44;68.56;100762.60;114382;1190;22379;-75
2021/10/26 06:23:56;;;;;;;;;;;;;;;4.44;68.61;100759.77;114368;1197;25150;-75
2021/10/26 06:26:25;;;;;;;43.40;14.80;;;;;;;4.43;68.69;100763.59;114462;1190;24086;-75
2021/10/26 06:28:53;;;;;;;34.90;16.80;;;;;;;4.43;68.66;100761.66;114414;1197;22415;-75
2021/10/26 06:31:21;;;;;;;46.00;18.20;;;;;;;4.45;68.77;100763.23;114459;1197;22563;-75
2021/10/26 06:33:50;;;;;;;39.60;18.10;;;;;;;4.47;68.93;100764.27;114392;1197;22488;-75
2021/10/26 06:36:19;;;;;;;47.90;17.80;;;;;;;4.50;68.98;100774.80;114302;1197;22859;-75
2021/10/26 06:38:47;;;;;;;45.40;18.40;;;;;;;4.52;68.95;100775.40;114345;1197;24283;-75
2021/10/26 06:41:15;;;;;;;35.40;16.00;;;;;;;4.55;69.08;100778.72;114378;1197;23405;-75
2021/10/26 06:43:43;;;;;;;38.30;16.50;;;;;;;4.57;69.37;100780.35;114429;1197;24103;-75
2021/10/26 06:46:11;;;;;;;35.40;14.30;;;;;;;4.58;69.44;100776.61;114429;1197;22434;-75
2021/10/26 06:48:40;;;;;;;42.20;16.60;;;;;;;4.58;69.63;100779.70;114474;1197;25025;-75
2021/10/26 06:51:08;;;;;;;41.70;15.60;;;;;;;4.57;69.80;100781.21;114479;1197;22443;-75
2021/10/26 06:53:39;;;;;;;33.00;12.90;;;;;;;4.57;69.89;100781.77;114467;1197;22549;-75
2021/10/26 06:56:12;;;;;;;34.30;12.20;;;;;;;4.57;69.82;100784.63;114350;1197;22531;-75
2021/10/26 06:58:40;;;;;;;32.90;10.30;;;;;;;4.57;69.78;100785.17;114419;1197;22606;-75
2021/10/26 07:01:08;;;;;;;38.10;13.40;;;;;;;4.53;69.70;100786.36;114266;1197;22844;-75
2021/10/26 07:03:37;;;;;;;41.70;14.50;;;;;;;4.49;69.79;100786.73;114224;1197;22439;-75
2021/10/26 07:06:05;;;;;;;45.70;13.50;;;;;;;4.49;69.84;100789.27;114321;1197;22432;-75
2021/10/26 07:08:34;;;;;;;42.60;12.70;;;;;;;4.50;70.02;100786.65;114293;1197;24073;-75
2021/10/26 07:11:02;;;;;;;33.90;12.90;;;;;;;4.52;70.11;100781.33;114419;1197;24920;-75
2021/10/26 07:13:32;;;;;;;36.80;13.50;;;;;;;4.55;70.37;100784.35;114643;1197;22450;-74
2021/10/26 07:16:01;;;;;;;30.40;11.10;;;;;;;4.57;70.68;100790.54;114298;1174;22425;-76
2021/10/26 07:18:28;;;;;;;33.00;12.50;;;;;;;4.62;71.06;100794.86;114246;1197;22435;-78
2021/10/26 07:20:57;;;;;;;36.20;11.90;;;;;;;4.69;71.41;100802.54;113917;1197;24053;-78
2021/10/26 07:23:25;;;;;;;34.50;12.40;;;;;;;4.79;71.66;100805.75;114066;1197;22584;-79
2021/10/26 07:25:54;;;;;;;31.40;11.10;;;;;;;4.90;71.86;100796.36;114227;1197;22474;-79
2021/10/26 07:28:22;;;;;;;34.10;11.50;;;;;;;5.01;71.96;100800.88;114300;1197;23085;-78
2021/10/26 07:30:50;;;;;;;29.10;11.80;;;;;;;5.11;72.24;100801.81;114030;1197;22433;-79
2021/10/26 07:33:22;;;;;;;34.00;12.40;;;;;;;5.24;72.51;100810.31;113882;1197;22433;-79
2021/10/26 07:35:54;;;;;;;31.50;12.60;;;;;;;5.38;72.65;100805.81;114185;1197;22435;-79
2021/10/26 07:38:29;;;;;;;28.90;11.20;;;;;;;5.53;73.03;100800.97;114213;1197;22519;-79
2021/10/26 07:40:58;;;;;;;32.70;12.30;;;;;;;5.70;73.11;100800.23;114314;1197;22452;-79
2021/10/26 07:43:26;;;;;;;25.30;10.90;;;;;;;5.87;73.25;100803.09;114168;1197;22539;-79
2021/10/26 07:45:54;;;;;;;28.50;10.10;;;;;;;6.06;73.14;100805.06;114211;1197;22431;-79
2021/10/26 07:48:22;;;;;;;26.90;9.50;;;;;;;6.27;73.11;100802.79;114575;1197;22426;-79
2021/10/26 07:50:51;;;;;;;28.10;10.50;;;;;;;6.46;72.86;100797.27;114171;1197;22441;-79
2021/10/26 07:53:19;;;;;;;22.50;9.40;;;;;;;6.62;72.72;100795.80;114407;1197;22445;-79
2021/10/26 07:55:47;;;;;;;27.00;10.10;;;;;;;6.76;72.51;100793.19;114179;1197;22433;-79
2021/10/26 07:58:15;;;;;;;22.20;9.20;;;;;;;6.90;72.51;100799.36;114248;1197;22451;-79
2021/10/26 08:00:43;;;;;;;19.70;8.30;;;;;;;7.04;72.20;100798.70;114290;1197;22455;-79
2021/10/26 08:03:11;;;;;;;20.10;8.30;;;;;;;7.18;72.16;100795.52;113900;1197;23121;-79
2021/10/26 08:05:40;;;;;;;21.00;7.40;;;;;;;7.34;72.06;100803.11;113898;1194;26182;-79
2021/10/26 08:08:07;;;;;;;25.40;8.60;;;;;;;7.48;71.95;100803.63;113940;1197;24051;-79
2021/10/26 08:10:36;;;;;;;20.70;8.00;;;;;;;7.61;71.64;100802.59;113897;1197;24079;-79
2021/10/26 08:13:04;;;;;;;22.50;8.50;;;;;;;7.73;71.62;100799.83;113922;1192;22421;-79
2021/10/26 08:15:32;;;;;;;20.50;8.00;;;;;;;7.84;71.48;100795.16;114361;1197;22437;-79
2021/10/26 08:18:00;;;;;;;19.90;8.30;;;;;;;7.95;71.55;100789.50;114804;1197;22439;-80
2021/10/26 08:20:28;;;;;;;20.90;7.00;;;;;;;8.05;71.40;100789.61;114917;1197;22427;-79
2021/10/26 08:22:56;;;;;;;23.60;7.80;;;;;;;8.17;71.24;100788.83;114949;1197;22514;-79
2021/10/26 08:25:27;;;;;;;20.60;7.40;;;;;;;8.29;70.96;100792.80;115054;1197;22442;-80
2021/10/26 08:27:56;;;;;;;18.60;7.40;;;;;;;8.41;70.84;100788.50;115050;1197;22473;-80
2021/10/26 08:30:32;;;;;;;23.60;8.60;;;;;;;8.51;70.71;100784.23;115036;1197;22459;-78
2021/10/26 08:33:03;;;;;;;21.80;8.50;;;;;;;8.60;70.64;100780.73;115249;1197;24936;-79
2021/10/26 08:35:30;;;;;;;;;;;;;;;8.69;70.54;100783.26;115243;1197;22468;-79
2021/10/26 08:38:01;;;;;;;27.10;9.50;;;;;;;8.76;70.26;100788.47;115124;1197;23161;-79
2021/10/26 08:40:31;;;;;;;28.40;9.60;;;;;;;8.84;70.18;100791.52;115550;1190;22467;-79
2021/10/26 08:43:03;;;;;;;26.80;9.70;;;;;;;8.92;69.91;100790.77;115218;1174;22444;-79
2021/10/26 08:45:34;;;;;;;25.10;8.90;;;;;;;8.99;69.93;100790.35;115094;1197;22455;-78
2021/10/26 08:48:03;;;;;;;;;;;;;;;9.06;69.85;100792.31;114504;1197;22432;-78
2021/10/26 08:50:35;;;;;;;27.30;9.30;;;;;;;9.15;69.66;100792.36;114459;1197;24009;-78
2021/10/26 08:53:06;;;;;;;24.70;8.60;;;;;;;9.25;69.52;100792.39;115117;1197;25101;-79
2021/10/26 08:55:37;;;;;;;22.60;7.80;;;;;;;9.31;69.22;100791.73;115189;1197;22458;-78
2021/10/26 08:58:06;;;;;;;23.50;6.70;;;;;;;9.37;69.20;100787.17;114516;1196;22507;-78
2021/10/26 09:00:34;;;;;;;21.70;7.40;;;;;;;9.42;69.04;100784.39;114405;1197;24034;-78
2021/10/26 09:03:17;;;;;;;18.90;5.90;;;;;;;9.48;68.90;100785.40;114509;1197;22428;-78
2021/10/26 09:05:47;;;;;;;20.00;6.20;;;;;;;9.55;68.76;100788.40;114541;1197;23757;-79
2021/10/26 09:08:18;;;;;;;16.50;5.20;;;;;;;9.60;68.57;100788.73;114781;1190;25108;-79
2021/10/26 09:10:49;;;;;;;18.30;6.00;;;;;;;9.67;68.33;100790.30;114955;1190;22440;-78
2021/10/26 09:16:42;;;;;;;20.80;5.50;;;;;;;9.81;68.07;100792.70;114648;1197;25640;-78
2021/10/26 09:19:13;;;;;;;15.50;5.50;;;;;;;9.86;68.04;100789.13;114597;1197;22475;-79
2021/10/26 09:21:43;;;;;;;17.20;5.90;;;;;;;9.90;68.04;100780.52;114739;1197;22745;-79
2021/10/26 09:24:14;;;;;;;13.60;4.90;;;;;;;9.95;67.94;100775.69;114521;1197;23263;-79
2021/10/26 09:26:50;;;;;;;16.80;6.30;;;;;;;10.02;67.85;100781.94;115011;1197;22421;-79
2021/10/26 09:29:37;;;;;;;16.10;6.00;;;;;;;10.08;67.61;100778.48;114726;1197;22477;-78
2021/10/26 09:32:09;;;;;;;24.40;6.60;;;;;;;10.18;67.54;100782.09;114660;1197;24188;-78
2021/10/26 09:34:43;;;;;;;16.10;6.20;;;;;;;10.29;67.38;100789.48;114620;1197;22578;-79
2021/10/26 09:37:12;;;;;;;20.30;6.30;;;;;;;10.38;67.20;100784.29;114798;1197;25209;-79
2021/10/26 09:39:52;;;;;;;18.90;6.10;;;;;;;10.46;67.07;100787.24;114568;1197;24111;-79
2021/10/26 09:42:21;;;;;;;19.20;6.20;;;;;;;10.50;66.75;100784.27;114501;1184;22468;-79
2021/10/26 09:44:55;;;;;;;21.00;6.50;;;;;;;10.54;66.72;100787.92;115240;1197;23969;-79
2021/10/26 09:47:27;;;;;;;16.70;5.30;;;;;;;10.60;66.80;100786.86;115052;1197;22483;-79
2021/10/26 09:49:59;;;;;;;14.90;5.00;;;;;;;10.67;66.54;100788.63;115190;1197;22445;-79
2021/10/26 09:52:30;;;;;;;17.90;5.50;;;;;;;10.75;66.28;100789.53;114993;1197;22461;-78
2021/10/26 09:55:14;;;;;;;16.90;5.50;;;;;;;10.80;66.06;100785.30;115133;1197;25326;-80
2021/10/26 09:57:46;;;;;;;16.80;5.20;;;;;;;10.86;66.02;100794.14;114918;1197;24242;-78
2021/10/26 10:00:20;;;;;;;15.30;5.30;;;;;;;10.91;65.68;100794.39;115177;1197;22524;-78
2021/10/26 10:03:01;;;;;;;15.10;5.20;;;;;;;11.00;65.69;100794.46;115168;1197;25525;-78
2021/10/26 10:05:31;;;;;;;14.20;4.10;;;;;;;11.10;65.44;100796.89;114986;1197;22427;-79
2021/10/26 10:08:00;;;;;;;14.80;4.30;;;;;;;11.17;65.38;100794.85;114991;1190;22692;-79
2021/10/26 10:10:38;;;;;;;15.00;4.40;;;;;;;11.27;65.53;100791.84;115075;1197;25134;-79
2021/10/26 10:13:07;;;;;;;17.20;4.40;;;;;;;11.36;65.09;100787.80;114949;1197;22435;-78
2021/10/26 10:15:36;;;;;;;15.50;4.20;;;;;;;11.46;64.94;100788.33;114422;1197;22617;-79
2021/10/26 10:18:05;;;;;;;16.70;4.30;;;;;;;11.53;64.92;100791.31;114483;1197;22417;-78
2021/10/26 10:20:34;;;;;;;14.50;4.00;;;;;;;11.61;64.66;100795.52;114546;1197;22419;-79
2021/10/26 10:23:03;;;;;;;13.80;3.90;;;;;;;11.68;64.52;100788.05;114802;1197;24015;-79
2021/10/26 10:25:33;;;;;;;13.20;4.20;;;;;;;11.79;64.27;100786.96;114583;1197;22995;-78
2021/10/26 10:28:02;;;;;;;19.10;4.40;;;;;;;11.87;64.06;100787.55;114508;1197;22431;-78
2021/10/26 10:30:32;;;;;;;15.70;4.30;;;;;;;11.95;63.76;100785.70;114626;1197;22402;-78
2021/10/26 10:33:01;;;;;;;18.70;4.70;;;;;;;12.03;63.73;100786.98;114540;1191;22441;-79
2021/10/26 10:35:32;;;;;;;16.60;3.90;;;;;;;12.10;63.43;100786.42;114546;1193;24051;-79
2021/10/26 10:38:02;;;;;;;12.60;4.30;;;;;;;12.19;63.58;100777.05;114996;1197;22469;-79
2021/10/26 10:40:32;;;;;;;14.50;4.50;;;;;;;12.28;63.61;100778.56;115059;1197;22410;-79
2021/10/26 10:43:02;;;;;;;12.70;3.90;;;;;;;12.41;63.38;100770.46;115222;1197;22414;-80
2021/10/26 10:45:35;;;;;;;12.30;3.50;;;;;;;12.55;63.24;100771.02;115080;1197;24165;-79
2021/10/26 10:48:25;;;;;;;14.30;3.60;;;;;;;12.68;62.85;100762.80;115632;1197;22594;-78
2021/10/26 10:51:11;;;;;;;13.70;3.50;;;;;;;12.80;62.53;100765.08;116065;1197;23270;-79
2021/10/26 10:53:40;;;;;;;14.50;3.20;;;;;;;12.91;62.37;100758.80;115980;1197;22446;-79
2021/10/26 10:56:18;;;;;;;14.50;3.60;;;;;;;13.01;62.14;100758.98;115894;1190;22460;-79
2021/10/26 10:58:49;;;;;;;13.50;3.20;;;;;;;13.11;61.66;100759.94;114904;1197;25061;-79
2021/10/26 11:01:34;;;;;;;14.40;3.00;;;;;;;13.18;61.33;100763.77;114769;1175;22424;-81
2021/10/26 11:04:39;;;;;;;14.60;3.20;;;;;;;13.25;61.03;100762.20;114782;1197;22420;-79
2021/10/26 11:07:07;;;;;;;10.40;2.90;;;;;;;13.27;60.92;100758.02;114785;1190;24187;-79
2021/10/26 11:10:02;;;;;;;13.90;3.50;;;;;;;13.30;60.89;100759.17;114739;1190;22453;-80
2021/10/26 11:12:34;;;;;;;15.60;3.10;;;;;;;13.34;60.76;100751.80;114238;1201;22478;-79
2021/10/26 11:15:05;;;;;;;14.00;2.80;;;;;;;13.37;60.64;100743.80;114341;1201;24061;-80
2021/10/26 11:17:59;;;;;;;9.90;2.80;;;;;;;13.42;60.65;100741.42;114184;1201;22433;-80
2021/10/26 11:20:48;;;;;;;10.00;2.30;;;;;;;13.46;60.40;100741.29;114247;1201;22828;-81
2021/10/26 11:23:34;;;;;;;13.70;2.60;;;;;;;13.49;60.21;100736.80;114298;1201;22463;-80
2021/10/26 11:26:09;;;;;;;11.10;2.10;;;;;;;13.55;60.19;100737.89;114081;1201;22444;-80
2021/10/26 11:28:40;;;;;;;14.80;3.10;;;;;;;13.61;59.99;100738.59;114210;1201;22483;-81
2021/10/26 11:31:14;;;;;;;10.30;2.30;;;;;;;13.66;59.62;100733.98;114182;1201;22568;-80